Tiempo atmosférico en la estación meteorológica de Hijar, Teruel (300 m.)



Fecha
DESCASC
Temp. máxima en grados centígrados (hora)
DESCASC
Temp. mínima en grados centígrados (hora)
DESCASC
Temp. media en grados centígrados
DESCASC
Racha de viento máxima en m/sg (hora)
DESCASC
Velocidad máxima media en intervalos de 10 minutos(hora)
DESCASC
Precipitaciones diarias en mm
DESCASC
Precipitaciones de 00:00 a 06:00 en mm
DESCASC
Precipitaciones de 06:00 a 12:00 en mm
DESCASC
Precipitaciones de 12:00 a 18:00 en mm
DESCASC
Precipitaciones de 18:00 a 24:00 en mm
DESCASC
07-01-2021 1.6 (22:30) -2.9 (-00:0) -0.7 5.28 (23:00) 3.33 (19:20) 0 0 0 0 0
09-01-2021 2.7 (13:50) -0.8 (-00:0) 1 5.56 (17:40) 3.61 (18:50) 25.8 8.2 4.4 6.6 6.6
08-01-2021 4 (14:00) -1.9 (-00:0) 1.1 5 (03:10) 3.33 (08:50) 5.4 0 0 0 5.4
10-01-2021 4.4 (13:00) 0 (02:50) 2.2 7.5 (21:30) 3.61 (19:30) 6.4 6.4 0 0 0
20-01-2021 5.9 (17:00) -0.4 (00:00) 2.8 5.28 (13:10) 3.61 (13:50) 0 0 0 0 0
12-01-2021 6.6 (15:00) -1.3 (-00:0) 2.6 10.83 (10:40) 6.94 (10:30) 0 0 0 0 0
11-01-2021 6.6 (14:30) -1.5 (-00:0) 2.5 8.89 (03:20) 5.83 (08:50) 0 0 0 0 0
02-01-2021 8 (13:50) 2.3 (00:00) 5.1 15.28 (16:10) 6.94 (07:20) 0 0 0 0 0
19-01-2021 8.9 (16:10) -0.4 (00:00) 4.2 3.89 (00:30) 3.06 (00:10) 0 0 0 0 0
06-01-2021 9 (14:50) -1.3 (-00:0) 3.9 6.39 (00:20) 3.89 (10:00) 0 0 0 0 0
13-01-2021 9.3 (14:40) 3.6 (00:00) 6.5 12.22 (06:10) 8.06 (01:50) 0 0 0 0 0
05-01-2021 9.8 (14:10) 0.9 (00:00) 5.4 8.89 (12:30) 5 (10:50) 0 0 0 0 0
29-12-2020 10.5 (12:20) 3.1 (00:00) 6.8 15.28 (11:20) 9.17 (11:20) 0 0 0 0 0
14-01-2021 10.5 (14:40) 2.9 (01:30) 6.7 16.11 (19:30) 11.11 (23:30) 0 0 0 0 0
04-01-2021 10.5 (15:20) 0.3 (00:00) 5.4 15 (14:40) 9.17 (14:40) 0 0 0 0 0
01-01-2021 10.9 (15:10) 3.3 (00:00) 7.1 11.11 (10:40) 5.56 (17:40) 0 0 0 0 0
25-01-2021 11.1 (00:10) 7.7 (00:00) 9.4 11.67 (05:20) 7.22 (05:20) 2.4 0 0.4 2 0
03-01-2021 11.5 (15:00) 1.8 (00:00) 6.6 11.67 (01:50) 6.67 (17:20) 0 0 0 0 0
15-01-2021 12.4 (14:40) 6.2 (00:00) 9.3 16.39 (15:50) 11.11 (05:30) 0 0 0 0 0
28-12-2020 12.4 (14:30) 4.5 (00:00) 8.4 23.61 (03:30) 15.28 (03:30) 4.2 3.8 0.4 0 0
30-12-2020 12.9 (15:00) 3.5 (00:00) 8.2 15.28 (11:20) 10 (11:20) 0 0 0 0 0
22-01-2021 14.1 (12:40) 4.7 (00:00) 9.4 29.44 (08:10) 18.06 (08:10) 0.8 0 0.8 0 0
16-01-2021 14.2 (14:40) 4.9 (00:00) 9.5 12.22 (01:10) 7.22 (03:10) 0 0 0 0 0
26-01-2021 14.5 (16:00) 3.7 (00:00) 9.1 8.61 (01:30) 6.11 (01:30) 0 0 0 0 0
31-12-2020 14.6 (13:40) 3.5 (00:00) 9.1 13.33 (17:20) 6.11 (17:20) 0.2 0 0 0 0.2
23-01-2021 15.1 (23:59) 5.2 (00:00) 10.2 16.94 (13:20) 11.39 (11:40) 0 0 0 0 0
18-01-2021 15.7 (13:30) 4.2 (00:00) 9.9 9.44 (10:50) 6.11 (00:20) 0 0 0 0 0
24-01-2021 16.8 (15:00) 7.2 (00:00) 12 25 (03:30) 15.28 (03:30) 2 0 2 0 0
21-01-2021 16.9 (13:00) 2.6 (00:00) 9.7 15.56 (16:00) 9.72 (16:00) 0 0 0 0 0
17-01-2021 17 (14:10) 4.9 (00:00) 11 13.33 (16:20) 7.78 (22:20) 0 0 0 0 0

Gráficas

Temp. máximas Temp. mínimas Temp. medias Precipitaciones Rachas de viento máximas Velocidades máximas media en intervalos de 10 minutos

Datos horarios

Fecha y hora oficial Temperatura (ºC) Velocidad del viento (km/h) Dirección del viento Racha (km/h) Dirección de racha Precipitación (mm) Presión (hPa) Tendencia (hPa) Humedad (%)
2021-01-26 23:00:00 8 9 Sudoeste 15 Sudoeste 0 -- -- 91
2021-01-26 22:00:00 7.6 12 Sudoeste 15 Sudoeste 0 -- -- 91
2021-01-26 21:00:00 8.4 5 Sudoeste 9 Sudoeste 0 -- -- 87
2021-01-26 20:00:00 9.3 6 Sudoeste 9 Sudoeste 0 -- -- 84
2021-01-26 19:00:00 10.7 4 Sudeste 5 Sudeste 0 -- -- 77
2021-01-26 18:00:00 12.5 2 Este 5 Este 0 -- -- 71
2021-01-26 17:00:00 13.3 0 Calma 9 Nordeste 0 -- -- 67
2021-01-26 16:00:00 14.5 3 Sudoeste 13 Este 0 -- -- 64
2021-01-26 15:00:00 14 6 Este 13 Este 0 -- -- 63
2021-01-26 14:00:00 13.3 7 Este 13 Este 0 -- -- 65
2021-01-26 13:00:00 12.3 6 Este 12 Este 0 -- -- 66
2021-01-26 12:00:00 11.9 5 Nordeste 10 Este 0 -- -- 66
2021-01-26 11:00:00 11 4 Sudoeste 8 Oeste 0 -- -- 67
2021-01-26 10:00:00 6.8 3 Sudoeste 13 Oeste 0 -- -- 84
2021-01-26 09:00:00 4 9 Sudoeste 13 Sudoeste 0 -- -- 88
2021-01-26 08:00:00 3.7 11 Sudoeste 17 Sudoeste 0 -- -- 91
2021-01-26 07:00:00 4.8 8 Oeste 20 Oeste 0 -- -- 87
2021-01-26 06:00:00 5.2 12 Oeste 21 Oeste 0 -- -- 87
2021-01-26 05:00:00 6 11 Oeste 24 Oeste 0 -- -- 85
2021-01-26 04:00:00 6.1 12 Sudoeste 21 Oeste 0 -- -- 84
2021-01-26 03:00:00 6.6 14 Oeste 31 Oeste 0 -- -- 83
2021-01-26 02:00:00 7 21 Oeste 31 Oeste 0 -- -- 82
2021-01-26 01:00:00 7.2 17 Oeste 31 Oeste 0 -- -- 83
2021-01-26 00:00:00 7.8 18 Oeste 36 Oeste 0 -- -- 81
2021-01-25 23:00:00 8.1 17 Oeste 34 Oeste 0 -- -- 80
2021-01-25 22:00:00 8 19 Oeste 31 Sudoeste 0 -- -- 81
2021-01-25 21:00:00 8.3 19 Oeste 28 Oeste 0 -- -- 82
2021-01-25 20:00:00 8.7 21 Oeste 40 Oeste 0 -- -- 83
2021-01-25 19:00:00 8.8 21 Oeste 33 Oeste 0 -- -- 86
2021-01-25 18:00:00 8.6 16 Oeste 30 Oeste 0.4 -- -- 92
2021-01-25 17:00:00 8.7 17 Oeste 27 Oeste 0.4 -- -- 93
2021-01-25 16:00:00 9.2 15 Oeste 22 Oeste 0.2 -- -- 94
2021-01-25 15:00:00 9.1 4 Noroeste 14 Noroeste 0.8 -- -- 93
2021-01-25 14:00:00 9.1 3 Noroeste 14 Norte 0.2 -- -- 92
2021-01-25 13:00:00 9.2 4 Noroeste 12 Norte 0 -- -- 91
2021-01-25 12:00:00 9.1 0 Calma 5 Noroeste 0.2 -- -- 90
2021-01-25 11:00:00 8.8 0 Calma 9 Norte 0.2 -- -- 89
2021-01-25 10:00:00 9.4 2 Norte 12 Nordeste 0 -- -- 81
2021-01-25 09:00:00 9.1 0 Calma 9 Nordeste 0 -- -- 79
2021-01-25 08:00:00 9.5 7 Este 10 Este 0 -- -- 73
2021-01-25 07:00:00 10.1 3 Oeste 22 Oeste 0 -- -- 68
2021-01-25 06:00:00 10.4 14 Oeste 42 Oeste 0 -- -- 65
2021-01-25 05:00:00 10.9 18 Oeste 32 Oeste 0 -- -- 60
2021-01-25 04:00:00 10.6 13 Oeste 34 Sudoeste 0 -- -- 59
2021-01-25 03:00:00 10.7 22 Sudoeste 33 Oeste 0 -- -- 57
2021-01-25 02:00:00 11.1 19 Sudoeste 26 Sudoeste 0 -- -- 55
2021-01-25 01:00:00 10.7 19 Oeste 37 Oeste 0 -- -- 58
2021-01-25 00:00:00 11 21 Oeste 33 Oeste 0 -- -- 57
2021-01-24 23:00:00 11.6 19 Oeste 38 Oeste 0 -- -- 54
2021-01-24 22:00:00 11.1 20 Oeste 30 Sudoeste 0 -- -- 54
2021-01-24 21:00:00 10.9 18 Oeste 33 Sudoeste 0 -- -- 54
2021-01-24 20:00:00 10.2 15 Oeste 22 Oeste 0 -- -- 57
2021-01-24 19:00:00 10.8 13 Oeste 19 Oeste 0 -- -- 60
2021-01-24 18:00:00 12.8 8 Oeste 28 Oeste 0 -- -- 53
2021-01-24 17:00:00 14.8 9 Noroeste 38 Oeste 0 -- -- 46
2021-01-24 16:00:00 16 16 Oeste 40 Oeste 0 -- -- 42
2021-01-24 15:00:00 16.8 17 Oeste 42 Oeste 0 -- -- 43
2021-01-24 14:00:00 15.7 10 Noroeste 26 Oeste 0 -- -- 52
2021-01-24 13:00:00 14 5 Noroeste 24 Oeste 0 -- -- 57
2021-01-24 12:00:00 12.7 11 Noroeste 33 Oeste 0 -- -- 63
2021-01-24 11:00:00 11.2 10 Noroeste 29 Oeste 0 -- -- 69
2021-01-24 10:00:00 9.8 12 Oeste 28 Noroeste 0 -- -- 77
2021-01-24 09:00:00 7.7 17 Noroeste 38 Oeste 0 -- -- 84
2021-01-24 08:00:00 7.5 24 Oeste 50 Oeste 1 -- -- 89
2021-01-24 07:00:00 7.9 14 Noroeste 52 Norte 1 -- -- 88
2021-01-24 06:00:00 12.6 24 Oeste 63 Oeste 0 -- -- 53
2021-01-24 05:00:00 13 45 Oeste 76 Oeste 0 -- -- 49
2021-01-24 04:00:00 13.4 48 Oeste 90 Oeste 0 -- -- 48
2021-01-24 03:00:00 13.4 50 Oeste 85 Oeste 0 -- -- 51
2021-01-24 02:00:00 13.8 43 Oeste 78 Oeste 0 -- -- 53
2021-01-24 01:00:00 13.9 25 Oeste 51 Oeste 0 -- -- 65
2021-01-24 00:00:00 15.1 36 Oeste 54 Oeste 0 -- -- 58
2021-01-23 23:00:00 14.5 26 Oeste 58 Sudoeste 0 -- -- 57
2021-01-23 22:00:00 14.3 28 Sudoeste 46 Sudoeste 0 -- -- 54
2021-01-23 21:00:00 13.1 8 Noroeste 32 Oeste 0 -- -- 56
2021-01-23 20:00:00 12.5 13 Oeste 31 Oeste 0 -- -- 57
2021-01-23 19:00:00 11.8 5 Oeste 15 Oeste 0 -- -- 57
2021-01-23 18:00:00 11.7 3 Noroeste 17 Nordeste 0 -- -- 58
2021-01-23 17:00:00 11.7 4 Sudeste 13 Sur 0 -- -- 58
2021-01-23 16:00:00 11.9 9 Sudoeste 28 Oeste 0 -- -- 55
2021-01-23 15:00:00 11.2 17 Oeste 54 Oeste 0 -- -- 59
2021-01-23 14:00:00 12.8 40 Oeste 61 Oeste 0 -- -- 48
2021-01-23 13:00:00 13.2 33 Oeste 55 Oeste 0 -- -- 47
2021-01-23 12:00:00 12.5 31 Sudoeste 59 Sudoeste 0 -- -- 48
2021-01-23 11:00:00 12.4 35 Oeste 57 Oeste 0 -- -- 46
2021-01-23 10:00:00 10.5 23 Oeste 50 Sudoeste 0 -- -- 51
2021-01-23 09:00:00 9.5 25 Oeste 48 Oeste 0 -- -- 51
2021-01-23 08:00:00 8.9 27 Oeste 49 Oeste 0 -- -- 54
2021-01-23 07:00:00 8.2 21 Oeste 46 Oeste 0 -- -- 58
2021-01-23 06:00:00 8.1 31 Oeste 48 Oeste 0 -- -- 59
2021-01-23 05:00:00 8.1 28 Oeste 41 Oeste 0 -- -- 59
2021-01-23 04:00:00 8.3 29 Sudoeste 52 Sudoeste 0 -- -- 60
2021-01-23 03:00:00 8 29 Oeste 45 Sudoeste 0 -- -- 62
2021-01-23 02:00:00 8 23 Oeste 36 Oeste 0 -- -- 61
2021-01-23 01:00:00 6 7 Oeste 16 Oeste 0 -- -- 71
2021-01-23 00:00:00 5.2 0 Calma 8 Sudoeste 0 -- -- 77
2021-01-22 23:00:00 4.7 2 Sudoeste 11 Oeste 0 -- -- 81
2021-01-22 22:00:00 5.5 9 Oeste 18 Noroeste 0 -- -- 79
2021-01-22 21:00:00 6.8 12 Oeste 24 Oeste 0 -- -- 74
2021-01-22 20:00:00 7.6 16 Oeste 28 Oeste 0 -- -- 72
2021-01-22 19:00:00 8.2 17 Oeste 34 Oeste 0 -- -- 71
2021-01-22 18:00:00 9.2 11 Oeste 29 Noroeste 0 -- -- 66
2021-01-22 17:00:00 9.9 7 Noroeste 39 Norte 0 -- -- 65
2021-01-22 16:00:00 10.9 8 Noroeste 59 Noroeste 0 -- -- 65
2021-01-22 15:00:00 13.5 27 Noroeste 77 Oeste 0 -- -- 50
2021-01-22 14:00:00 12.9 45 Oeste 78 Oeste 0 -- -- 52
2021-01-22 13:00:00 14.1 44 Oeste 90 Oeste 0 -- -- 52
2021-01-22 12:00:00 13.6 51 Oeste 79 Oeste 0 -- -- 51
2021-01-22 11:00:00 11.7 39 Oeste 59 Oeste 0 -- -- 55
2021-01-22 10:00:00 9.7 14 Sudoeste 38 Sudoeste 0 -- -- 70
2021-01-22 09:00:00 8 26 Sudoeste 106 Oeste 0.8 -- -- 78
2021-01-22 08:00:00 8.8 42 Oeste 94 Oeste 0 -- -- 75
2021-01-22 07:00:00 7.9 5 Sudoeste 19 Sudeste 0 -- -- 82
2021-01-22 06:00:00 7.9 8 Nordeste 14 Nordeste 0 -- -- 81
2021-01-22 05:00:00 9.3 3 Nordeste 18 Sudeste 0 -- -- 77
2021-01-22 04:00:00 10.7 5 Sudeste 10 Nordeste 0 -- -- 73
2021-01-22 03:00:00 10.8 0 Calma 12 Oeste 0 -- -- 71
2021-01-22 02:00:00 10.8 5 Noroeste 15 Oeste 0 -- -- 70
2021-01-22 01:00:00 11.9 3 Este 18 Oeste 0 -- -- 66
2021-01-22 00:00:00 13.1 6 Oeste 36 Oeste 0 -- -- 61
2021-01-21 23:00:00 15 24 Sudoeste 40 Oeste 0 -- -- 55
2021-01-21 22:00:00 14.5 14 Oeste 32 Sudoeste 0 -- -- 56
2021-01-21 21:00:00 13.8 13 Oeste 26 Sudoeste 0 -- -- 58
2021-01-21 20:00:00 14 20 Sudoeste 41 Sudoeste 0 -- -- 55
2021-01-21 19:00:00 14.1 22 Sudoeste 42 Sudoeste 0 -- -- 55
2021-01-21 18:00:00 14.6 23 Oeste 44 Sudoeste 0 -- -- 54
2021-01-21 17:00:00 15.2 26 Oeste 50 Oeste 0 -- -- 50
2021-01-21 16:00:00 15.2 35 Sudoeste 56 Oeste 0 -- -- 49
2021-01-21 15:00:00 15.8 34 Oeste 53 Oeste 0 -- -- 50
2021-01-21 14:00:00 16.4 22 Oeste 44 Oeste 0 -- -- 50
2021-01-21 13:00:00 16.9 20 Oeste 40 Oeste 0 -- -- 48
2021-01-21 12:00:00 14.5 15 Oeste 32 Oeste 0 -- -- 58
2021-01-21 11:00:00 13.1 18 Oeste 30 Oeste 0 -- -- 63
2021-01-21 10:00:00 10.6 7 Sur 10 Sudoeste 0 -- -- 73
2021-01-21 09:00:00 7.9 6 Oeste 18 Sudoeste 0 -- -- 79
2021-01-21 08:00:00 6.4 11 Sudoeste 15 Sudoeste 0 -- -- 87
2021-01-21 07:00:00 5.3 4 Sudoeste 7 Sur 0 -- -- 90
2021-01-21 06:00:00 3.6 2 Sur 9 Nordeste 0 -- -- 92
2021-01-21 05:00:00 4.3 4 Norte 13 Sudoeste 0 -- -- 90
2021-01-21 04:00:00 4.5 7 Sudoeste 15 Sudoeste 0 -- -- 96
2021-01-21 03:00:00 3.3 5 Sudoeste 10 Sudoeste 0 -- -- 96
2021-01-21 02:00:00 2.6 4 Sudoeste 12 Oeste 0 -- -- 95
2021-01-21 01:00:00 3 2 Sudeste 7 Sur 0 -- -- 95
2021-01-21 00:00:00 3.1 2 Nordeste 6 Sur 0 -- -- 94
2021-01-20 23:00:00 3.2 5 Sudoeste 8 Sudoeste 0 -- -- 95
2021-01-20 22:00:00 3.4 2 Noroeste 11 Sudoeste 0 -- -- 94
2021-01-20 21:00:00 3.8 2 Sudoeste 5 Sudeste 0 -- -- 93
2021-01-20 20:00:00 3.9 3 Sudeste 9 Sudoeste 0 -- -- 94
2021-01-20 19:00:00 4.4 4 Sudoeste 9 Sudoeste 0 -- -- 92
2021-01-20 18:00:00 4.8 2 Oeste 11 Nordeste 0 -- -- 91
2021-01-20 17:00:00 5.9 3 Nordeste 12 Nordeste 0 -- -- 89
2021-01-20 16:00:00 5.7 4 Nordeste 11 Nordeste 0 -- -- 87
2021-01-20 15:00:00 5.3 4 Norte 15 Este 0 -- -- 89
2021-01-20 14:00:00 4.2 5 Nordeste 19 Este 0 -- -- 93
2021-01-20 13:00:00 3.4 10 Este 19 Este 0 -- -- 97
2021-01-20 12:00:00 2.7 10 Este 14 Este -- -- -- 97
2021-01-20 11:00:00 2 3 Sur 14 Sudoeste 0 -- -- 97
2021-01-20 10:00:00 1.4 12 Sudoeste 15 Oeste 0 -- -- 97
2021-01-20 09:00:00 0.7 6 Sudoeste 14 Sudoeste 0 -- -- 97
2021-01-20 08:00:00 0.5 8 Sudoeste 14 Sudoeste 0 -- -- 96
2021-01-20 07:00:00 -0.1 5 Sudoeste 11 Sudoeste 0 -- -- 95
2021-01-20 06:00:00 -0.2 3 Sudoeste 6 Sudoeste 0 -- -- 94
2021-01-20 05:00:00 0 2 Sur 8 Sudoeste -- -- -- 95
2021-01-20 04:00:00 -0.1 4 Sudoeste 12 Sudoeste 0 -- -- 94
2021-01-20 03:00:00 0.3 7 Sudoeste 10 Oeste 0 -- -- 93
2021-01-20 02:00:00 1.2 4 Sudoeste 8 Sudoeste 0 -- -- 92
2021-01-20 01:00:00 1.9 6 Sudoeste 9 Sudoeste 0 -- -- 93
2021-01-20 00:00:00 1.8 5 Sudoeste 9 Sudoeste 0 -- -- 92
2021-01-19 23:00:00 2.1 4 Sudoeste 6 Sudoeste 0 -- -- 91
2021-01-19 22:00:00 2.4 4 Sudoeste 8 Sudoeste 0 -- -- 89
2021-01-19 21:00:00 3.8 3 Este 8 Sur 0 -- -- 85
2021-01-19 20:00:00 4.3 4 Sudoeste 6 Sur 0 -- -- 82
2021-01-19 19:00:00 5.7 5 Sudoeste 8 Sudoeste 0 -- -- 78
2021-01-19 18:00:00 8.3 0 Calma 5 Nordeste 0 -- -- 67
2021-01-19 17:00:00 8.9 4 Nordeste 7 Este 0 -- -- 68
2021-01-19 16:00:00 8.8 5 Este 12 Nordeste 0 -- -- 69
2021-01-19 15:00:00 8.1 4 Nordeste 9 Este 0 -- -- 71
2021-01-19 14:00:00 7 5 Nordeste 10 Este 0 -- -- 77
2021-01-19 13:00:00 6.4 3 Nordeste 8 Nordeste 0 -- -- 77
2021-01-19 12:00:00 5 3 Norte 10 Nordeste 0 -- -- 78
2021-01-19 11:00:00 4.1 2 Nordeste 6 Nordeste 0 -- -- 79
2021-01-19 10:00:00 3.1 0 Calma 4 Oeste 0 -- -- 79
2021-01-19 09:00:00 0.4 3 Sudoeste 5 Sudoeste 0 -- -- 91
2021-01-19 08:00:00 0 0 Calma 5 Sudoeste 0 -- -- 90
2021-01-19 07:00:00 0.4 3 Sudoeste 6 Sudoeste 0 -- -- 90
2021-01-19 06:00:00 0.6 4 Sudoeste 7 Sudoeste 0 -- -- 89
2021-01-19 05:00:00 1.3 3 Sudoeste 4 Sudoeste -- -- -- 89
2021-01-19 04:00:00 2.2 3 Sudoeste 4 Sudoeste 0 -- -- 88
2021-01-19 03:00:00 2.9 0 Calma 7 Sur 0 -- -- 85
2021-01-19 02:00:00 3.2 3 Este 6 Nordeste 0 -- -- 84
2021-01-19 01:00:00 3.4 3 Sur 14 Sudoeste 0 -- -- 80
2021-01-19 00:00:00 4.2 11 Sudoeste 18 Sudoeste 0 -- -- 78
2021-01-18 23:00:00 4.3 8 Sudoeste 12 Oeste 0 -- -- 79
2021-01-18 22:00:00 5 7 Sudoeste 11 Sudoeste 0 -- -- 80
2021-01-18 21:00:00 6 6 Sudoeste 9 Sudoeste 0 -- -- 79
2021-01-18 20:00:00 7.2 5 Sudoeste 10 Sudoeste 0 -- -- 71
2021-01-18 19:00:00 9.8 2 Noroeste 6 Oeste 0 -- -- 61
2021-01-18 18:00:00 11.9 3 Sudoeste 6 Noroeste 0 -- -- 58
2021-01-18 17:00:00 13.6 3 Norte 18 Norte 0 -- -- 56
2021-01-18 16:00:00 14.8 3 Noroeste 19 Norte 0 -- -- 53
2021-01-18 15:00:00 15.2 5 Noroeste 20 Noroeste 0 -- -- 53
2021-01-18 14:00:00 15.3 6 Noroeste 29 Oeste 0 -- -- 52
2021-01-18 13:00:00 14.6 5 Noroeste 30 Oeste 0 -- -- 56
2021-01-18 12:00:00 14 15 Oeste 32 Oeste 0 -- -- 57
2021-01-18 11:00:00 12.7 14 Oeste 34 Oeste 0 -- -- 58
2021-01-18 10:00:00 9.7 11 Sudoeste 18 Sudoeste 0 -- -- 69
2021-01-18 09:00:00 6.7 14 Sudoeste 22 Sudoeste 0 -- -- 76
2021-01-18 08:00:00 7.6 14 Oeste 27 Oeste 0 -- -- 74
2021-01-18 07:00:00 7.8 17 Oeste 26 Oeste 0 -- -- 75
2021-01-18 06:00:00 8.5 17 Sudoeste 30 Oeste 0 -- -- 75
2021-01-18 05:00:00 8.9 15 Oeste 32 Oeste 0 -- -- 75
2021-01-18 04:00:00 8.7 14 Sudoeste 33 Oeste 0 -- -- 76
2021-01-18 03:00:00 8.9 19 Oeste 32 Oeste -- -- -- 78
2021-01-18 02:00:00 9.5 18 Oeste 29 Sudoeste 0 -- -- 76
2021-01-18 01:00:00 9.5 19 Oeste 33 Oeste 0 -- -- 75
2021-01-18 00:00:00 10 20 Oeste 39 Oeste 0 -- -- 73
2021-01-17 23:00:00 10.3 23 Oeste 43 Oeste 0 -- -- 74
2021-01-17 22:00:00 10.3 25 Oeste 38 Oeste 0 -- -- 74
2021-01-17 21:00:00 10.7 23 Oeste 39 Oeste 0 -- -- 73
2021-01-17 20:00:00 11 23 Oeste 40 Oeste 0 -- -- 71
2021-01-17 19:00:00 11.3 23 Oeste 41 Oeste 0 -- -- 69
2021-01-17 18:00:00 12.5 22 Oeste 40 Oeste 0 -- -- 64
2021-01-17 17:00:00 14.7 20 Noroeste 48 Oeste 0 -- -- 54
2021-01-17 16:00:00 15.9 16 Noroeste 47 Oeste 0 -- -- 45
2021-01-17 15:00:00 16.1 18 Noroeste 46 Oeste 0 -- -- 45
2021-01-17 14:00:00 16.9 19 Oeste 43 Oeste 0 -- -- 38
2021-01-17 13:00:00 15.7 21 Oeste 37 Oeste 0 -- -- 36
2021-01-17 12:00:00 15 18 Oeste 35 Oeste 0 -- -- 37
2021-01-17 11:00:00 13.4 21 Oeste 35 Oeste 0 -- -- 37
2021-01-17 10:00:00 10.4 23 Oeste 41 Oeste 0 -- -- 40
2021-01-17 09:00:00 6.8 25 Oeste 40 Sudoeste 0 -- -- 47
2021-01-17 08:00:00 5.4 14 Oeste 18 Oeste 0 -- -- 49
2021-01-17 07:00:00 6.1 12 Sudoeste 21 Sudoeste 0 -- -- 48
2021-01-17 06:00:00 7.1 15 Sudoeste 24 Sudoeste 0 -- -- 44
2021-01-17 05:00:00 6.7 17 Sudoeste 24 Sudoeste 0 -- -- 46
2021-01-17 04:00:00 6.5 14 Sudoeste 24 Sudoeste 0 -- -- 48
2021-01-17 03:00:00 6.8 19 Sudoeste 25 Sudoeste 0 -- -- 47
2021-01-17 02:00:00 7.3 16 Sudoeste 25 Sudoeste 0 -- -- 44
2021-01-17 01:00:00 7.6 17 Sudoeste 27 Sudoeste 0 -- -- 42
2021-01-17 00:00:00 7.6 16 Sudoeste 22 Sudoeste 0 -- -- 43
2021-01-16 23:00:00 9.1 16 Sudoeste 26 Sudoeste 0 -- -- 37
2021-01-16 22:00:00 8.9 18 Sudoeste 29 Oeste 0 -- -- 38
2021-01-16 21:00:00 9.3 20 Oeste 28 Oeste 0 -- -- 40
2021-01-16 20:00:00 9.2 13 Oeste 24 Oeste 0 -- -- 41
2021-01-16 19:00:00 8.4 12 Oeste 15 Oeste 0 -- -- 48
2021-01-16 18:00:00 10.5 6 Sudoeste 13 Sudoeste 0 -- -- 45
2021-01-16 17:00:00 12.4 8 Oeste 19 Oeste 0 -- -- 40
2021-01-16 16:00:00 13 3 Noroeste 15 Oeste 0 -- -- 45
2021-01-16 15:00:00 14 4 Noroeste 21 Noroeste 0 -- -- 43
2021-01-16 14:00:00 13.3 8 Noroeste 27 Noroeste 0 -- -- 43
2021-01-16 13:00:00 12.4 7 Noroeste 32 Oeste 0 -- -- 47
2021-01-16 12:00:00 10.8 11 Noroeste 32 Oeste 0 -- -- 52
2021-01-16 11:00:00 10.1 15 Oeste 33 Oeste 0 -- -- 58
2021-01-16 10:00:00 8.1 13 Oeste 27 Oeste 0 -- -- 65
2021-01-16 09:00:00 5.8 15 Oeste 24 Oeste 0 -- -- 72
2021-01-16 08:00:00 5.1 16 Oeste 27 Oeste 0 -- -- 75
2021-01-16 07:00:00 5.5 12 Oeste 28 Oeste 0 -- -- 74
2021-01-16 06:00:00 5.8 14 Oeste 28 Oeste 0 -- -- 72
2021-01-16 05:00:00 6.3 19 Oeste 41 Oeste 0 -- -- 71
2021-01-16 04:00:00 6.4 18 Noroeste 41 Oeste 0 -- -- 71
2021-01-16 03:00:00 6.4 26 Oeste 42 Oeste 0 -- -- 70
2021-01-16 02:00:00 6.3 22 Oeste 44 Oeste 0 -- -- 70
2021-01-16 01:00:00 6.5 22 Oeste 43 Oeste 0 -- -- 70
2021-01-16 00:00:00 6.2 13 Noroeste 44 Oeste 0 -- -- 71
2021-01-15 23:00:00 6.4 14 Noroeste 42 Oeste 0 -- -- 71
2021-01-15 22:00:00 7 22 Oeste 44 Oeste 0 -- -- 67
2021-01-15 21:00:00 7.3 26 Oeste 55 Noroeste 0 -- -- 68
2021-01-15 20:00:00 7.5 23 Oeste 48 Oeste 0 -- -- 67
2021-01-15 19:00:00 8 24 Oeste 53 Noroeste 0 -- -- 67
2021-01-15 18:00:00 8.7 22 Noroeste 58 Noroeste 0 -- -- 64
2021-01-15 17:00:00 10.3 17 Noroeste 48 Oeste 0 -- -- 60
2021-01-15 16:00:00 11.6 22 Noroeste 59 Noroeste 0 -- -- 57
2021-01-15 15:00:00 12.2 18 Noroeste 48 Oeste 0 -- -- 55
2021-01-15 14:00:00 11.7 19 Noroeste 51 Noroeste 0 -- -- 58
2021-01-15 13:00:00 11 23 Noroeste 58 Oeste 0 -- -- 59
2021-01-15 12:00:00 9.9 24 Oeste 56 Oeste 0 -- -- 62
2021-01-15 11:00:00 9.1 28 Oeste 57 Oeste 0 -- -- 65
2021-01-15 10:00:00 8.7 31 Oeste 57 Oeste 0 -- -- 65
2021-01-15 09:00:00 7.2 26 Oeste 57 Oeste 0 -- -- 68
2021-01-15 08:00:00 7.3 37 Oeste 57 Oeste 0 -- -- 66
2021-01-15 07:00:00 7.1 31 Oeste 56 Oeste 0 -- -- 67
2021-01-15 06:00:00 6.7 37 Oeste 53 Oeste 0 -- -- 68
2021-01-15 05:00:00 6.2 28 Oeste 45 Oeste 0 -- -- 76
2021-01-15 04:00:00 7.3 24 Oeste 45 Oeste 0 -- -- 73
2021-01-15 03:00:00 7.4 28 Oeste 46 Oeste 0 -- -- 73
2021-01-15 02:00:00 8 34 Oeste 57 Oeste 0 -- -- 74
2021-01-15 01:00:00 7.5 36 Oeste 53 Oeste 0 -- -- 77
2021-01-15 00:00:00 7.5 36 Oeste 55 Oeste 0 -- -- 78
2021-01-14 23:00:00 7.8 36 Oeste 55 Oeste 0 -- -- 77
2021-01-14 22:00:00 7.2 31 Oeste 53 Oeste 0 -- -- 77
2021-01-14 21:00:00 7.4 36 Oeste 50 Oeste 0 -- -- 74
2021-01-14 20:00:00 7.3 37 Oeste 58 Oeste 0 -- -- 69
2021-01-14 19:00:00 7 34 Oeste 55 Oeste 0 -- -- 66
2021-01-14 18:00:00 6.4 13 Sudoeste 30 Oeste 0 -- -- 65
2021-01-14 17:00:00 8.3 18 Oeste 40 Oeste 0 -- -- 60
2021-01-14 16:00:00 9.8 14 Oeste 33 Oeste 0 -- -- 57
2021-01-14 15:00:00 10.1 19 Oeste 31 Oeste 0 -- -- 57
2021-01-14 14:00:00 10.2 24 Oeste 36 Oeste 0 -- -- 59
2021-01-14 13:00:00 9.2 18 Oeste 34 Oeste 0 -- -- 58
2021-01-14 12:00:00 8.5 18 Oeste 29 Oeste 0 -- -- 59
2021-01-14 11:00:00 7.4 17 Oeste 32 Oeste 0 -- -- 63
2021-01-14 10:00:00 6.1 18 Oeste 32 Oeste 0 -- -- 67
2021-01-14 09:00:00 4.6 21 Oeste 33 Oeste 0 -- -- 71
2021-01-14 08:00:00 4 18 Oeste 32 Oeste 0 -- -- 72
2021-01-14 07:00:00 4.3 19 Oeste 30 Oeste 0 -- -- 71
2021-01-14 06:00:00 4.4 19 Oeste 35 Oeste 0 -- -- 71
2021-01-14 05:00:00 4.5 24 Oeste 35 Oeste 0 -- -- 71
2021-01-14 04:00:00 4.1 22 Oeste 30 Oeste 0 -- -- 72
2021-01-14 03:00:00 4.2 19 Oeste 27 Oeste 0 -- -- 73
2021-01-14 02:00:00 3 15 Sudoeste 23 Sudoeste 0 -- -- 75
2021-01-14 01:00:00 3.6 16 Sudoeste 24 Sudoeste 0 -- -- 71
2021-01-14 00:00:00 5.1 16 Sudoeste 28 Oeste 0 -- -- 70
2021-01-13 23:00:00 5.7 20 Oeste 33 Oeste 0 -- -- 71
2021-01-13 22:00:00 5.7 24 Oeste 36 Oeste 0 -- -- 71
2021-01-13 21:00:00 5.5 20 Oeste 30 Oeste 0 -- -- 71
2021-01-13 20:00:00 5.8 19 Oeste 28 Oeste 0 -- -- 70
2021-01-13 19:00:00 6 14 Oeste 22 Sudoeste 0 -- -- 69
2021-01-13 18:00:00 7 16 Oeste 30 Oeste 0 -- -- 66
2021-01-13 17:00:00 7.8 21 Oeste 31 Oeste 0 -- -- 64
2021-01-13 16:00:00 8.6 21 Oeste 29 Oeste 0 -- -- 64
2021-01-13 15:00:00 9 21 Oeste 30 Oeste 0 -- -- 64
2021-01-13 14:00:00 9.1 20 Oeste 31 Oeste 0 -- -- 63
2021-01-13 13:00:00 8.8 19 Oeste 30 Oeste 0 -- -- 64
2021-01-13 12:00:00 8.2 19 Oeste 32 Oeste 0 -- -- 64
2021-01-13 11:00:00 7.4 21 Oeste 36 Oeste 0 -- -- 66
2021-01-13 10:00:00 6.5 24 Oeste 40 Oeste 0 -- -- 68
2021-01-13 09:00:00 5.3 24 Oeste 36 Sudoeste 0 -- -- 72
2021-01-13 08:00:00 4.5 19 Oeste 35 Oeste 0 -- -- 74
2021-01-13 07:00:00 4.7 23 Oeste 44 Oeste 0 -- -- 74
2021-01-13 06:00:00 4.6 26 Oeste 39 Oeste 0 -- -- 72
2021-01-13 05:00:00 4.5 23 Oeste 39 Oeste 0 -- -- 74
2021-01-13 04:00:00 4.5 23 Oeste 36 Oeste 0 -- -- 72
2021-01-13 03:00:00 4.3 24 Oeste 41 Oeste 0 -- -- 73
2021-01-13 02:00:00 4.3 29 Oeste 42 Oeste 0 -- -- 73
2021-01-13 01:00:00 4 23 Oeste 38 Oeste 0 -- -- 74
2021-01-13 00:00:00 3.6 21 Oeste 33 Oeste 0 -- -- 75
2021-01-12 23:00:00 3.9 21 Oeste 38 Oeste 0 -- -- 75
2021-01-12 22:00:00 3.4 22 Oeste 33 Oeste 0 -- -- 75
2021-01-12 21:00:00 3.8 20 Oeste 31 Oeste 0 -- -- 72
2021-01-12 20:00:00 3.7 22 Oeste 36 Oeste 0 -- -- 69
2021-01-12 19:00:00 3.7 18 Oeste 30 Oeste 0 -- -- 71
2021-01-12 18:00:00 3.8 18 Oeste 27 Oeste 0 -- -- 68
2021-01-12 17:00:00 5.3 19 Oeste 34 Oeste 0 -- -- 62
2021-01-12 16:00:00 5.6 20 Oeste 31 Oeste 0 -- -- 61
2021-01-12 15:00:00 6.6 24 Oeste 32 Oeste 0 -- -- 56
2021-01-12 14:00:00 6.3 21 Oeste 32 Oeste 0 -- -- 60
2021-01-12 13:00:00 4.8 23 Oeste 35 Oeste 0 -- -- 66
2021-01-12 12:00:00 4.3 22 Oeste 36 Oeste 0 -- -- 67
2021-01-12 11:00:00 3.6 22 Oeste 39 Oeste 0 -- -- 66
2021-01-12 10:00:00 1.1 18 Sudoeste 27 Sudoeste 0 -- -- 67
2021-01-12 09:00:00 -0.6 18 Sudoeste 26 Sudoeste 0 -- -- 67
2021-01-12 08:00:00 -1.1 19 Sudoeste 24 Sudoeste 0 -- -- 64
2021-01-12 07:00:00 -1.1 17 Sudoeste 24 Sudoeste 0 -- -- 64
2021-01-12 06:00:00 -0.6 15 Sudoeste 22 Sudoeste 0 -- -- 66
2021-01-12 05:00:00 -0.1 15 Sudoeste 22 Sudoeste 0 -- -- 65
2021-01-12 04:00:00 0.1 13 Sudoeste 24 Oeste 0 -- -- 66
2021-01-12 03:00:00 -0.1 16 Oeste 29 Oeste 0 -- -- 68
2021-01-12 02:00:00 0.2 18 Oeste 28 Oeste 0 -- -- 71
2021-01-12 01:00:00 0 15 Oeste 27 Oeste 0 -- -- 72
2021-01-12 00:00:00 -0.1 14 Oeste 26 Oeste 0 -- -- 71
2021-01-11 23:00:00 -0.1 16 Oeste 25 Oeste 0 -- -- 71
2021-01-11 22:00:00 0 17 Oeste 28 Oeste 0 -- -- 72
2021-01-11 21:00:00 0.4 19 Oeste 29 Oeste 0 -- -- 73
2021-01-11 20:00:00 0.8 18 Oeste 26 Oeste 0 -- -- 71
2021-01-11 19:00:00 0.9 15 Oeste 26 Oeste 0 -- -- 72
2021-01-11 18:00:00 1.5 15 Oeste 25 Oeste 0 -- -- 72
2021-01-11 17:00:00 3.4 14 Oeste 20 Oeste 0 -- -- 66
2021-01-11 16:00:00 5.1 13 Oeste 19 Oeste 0 -- -- 62
2021-01-11 15:00:00 6.4 12 Oeste 21 Oeste 0 -- -- 58
2021-01-11 14:00:00 6.4 11 Oeste 20 Oeste 0 -- -- 60
2021-01-11 13:00:00 5.6 12 Oeste 27 Oeste 0 -- -- 61
2021-01-11 12:00:00 4.1 15 Oeste 26 Oeste 0 -- -- 65
2021-01-11 11:00:00 2.7 18 Oeste 26 Oeste 0 -- -- 67
2021-01-11 10:00:00 1.3 17 Oeste 31 Oeste 0 -- -- 71
2021-01-11 09:00:00 -0.8 19 Oeste 30 Oeste 0 -- -- 76
2021-01-11 08:00:00 -1.5 18 Oeste 28 Oeste 0 -- -- 76
2021-01-11 07:00:00 -1.2 17 Oeste 24 Oeste 0 -- -- 76
2021-01-11 06:00:00 -1.2 16 Oeste 28 Oeste 0 -- -- 76
2021-01-11 05:00:00 -1 14 Oeste 31 Oeste 0 -- -- 77
2021-01-11 04:00:00 -0.4 19 Oeste 32 Oeste 0 -- -- 77
2021-01-11 03:00:00 -0.2 18 Oeste 30 Noroeste 0 -- -- 78
2021-01-11 02:00:00 0.6 13 Oeste 30 Oeste 0 -- -- 80
2021-01-11 01:00:00 0.8 15 Oeste 26 Oeste 0 -- -- 80
2021-01-11 00:00:00 0.8 9 Oeste 21 Oeste 0 -- -- 83
2021-01-10 23:00:00 1 9 Oeste 23 Oeste 0 -- -- 84
2021-01-10 22:00:00 1.3 12 Oeste 27 Oeste 0 -- -- 84
2021-01-10 21:00:00 1.5 9 Oeste 19 Oeste 0 -- -- 84
2021-01-10 20:00:00 1.6 11 Oeste 21 Oeste 0 -- -- 82
2021-01-10 19:00:00 1.7 11 Oeste 21 Oeste 0 -- -- 83
2021-01-10 18:00:00 1.9 13 Oeste 18 Oeste 0 -- -- 84
2021-01-10 17:00:00 2.5 10 Oeste 22 Oeste 0 -- -- 81
2021-01-10 16:00:00 3.2 9 Oeste 18 Oeste 0 -- -- 80
2021-01-10 15:00:00 3.9 9 Oeste 17 Oeste 0 -- -- 78
2021-01-10 14:00:00 4.2 7 Oeste 15 Oeste 0 -- -- 81
2021-01-10 13:00:00 4.4 5 Oeste 14 Oeste 0 -- -- 82
2021-01-10 12:00:00 4 8 Oeste 13 Oeste 0 -- -- 86
2021-01-10 11:00:00 2 9 Sudoeste 15 Sudoeste 0 -- -- 96
2021-01-10 10:00:00 0.9 8 Sudoeste 12 Sudoeste 0 -- -- 98
2021-01-10 09:00:00 0.3 0 Calma -- -- 0 -- -- 98
2021-01-10 08:00:00 0.2 0 Calma -- -- 0 -- -- 97
2021-01-10 07:00:00 0.2 0 Calma -- -- 0 -- -- 97
2021-01-10 06:00:00 0.2 0 Calma -- -- 0 -- -- 97
2021-01-10 05:00:00 0.1 0 Calma -- -- 1 -- -- 97
2021-01-10 04:00:00 0.1 0 Calma -- -- 0.8 -- -- 97
2021-01-10 03:00:00 0 0 Calma -- -- 1 -- -- 97
2021-01-10 02:00:00 0.1 0 Calma -- -- 1 -- -- 97
2021-01-10 01:00:00 0.1 0 Calma -- -- 2.6 -- -- 97
2021-01-10 00:00:00 0.1 0 Calma -- -- 4.2 -- -- 97
2021-01-09 23:00:00 0.1 0 Calma 8 Oeste 1.4 -- -- 97
2021-01-09 22:00:00 0 3 Noroeste 11 Oeste 0 -- -- 97
2021-01-09 21:00:00 0 6 Oeste 17 Oeste 0.4 -- -- 96
2021-01-09 20:00:00 -0.1 10 Oeste 17 Oeste 0 -- -- 96
2021-01-09 19:00:00 -0.1 12 Oeste 20 Noroeste 0.6 -- -- 95
2021-01-09 18:00:00 0.1 9 Oeste 20 Oeste 2.6 -- -- 94
2021-01-09 17:00:00 0.8 7 Oeste 12 Oeste 0.8 -- -- 91
2021-01-09 16:00:00 1.5 4 Oeste 17 Oeste 0 -- -- 90
2021-01-09 15:00:00 2 3 Noroeste 14 Noroeste 0 -- -- 87
2021-01-09 14:00:00 2.4 9 Oeste 13 Oeste 1.6 -- -- 86
2021-01-09 13:00:00 1.4 6 Oeste 11 Sudoeste 1.6 -- -- 92
2021-01-09 12:00:00 1 0 Calma -- -- 0.4 -- -- 93
2021-01-09 11:00:00 0.7 0 Calma -- -- 0 -- -- 95
2021-01-09 10:00:00 -0.1 0 Calma -- -- 0.4 -- -- 96
2021-01-09 09:00:00 -0.7 0 Calma -- -- 1.4 -- -- 96
2021-01-09 08:00:00 -0.8 0 Calma -- -- 1.4 -- -- 95
2021-01-09 07:00:00 -0.8 0 Calma -- -- 0.8 -- -- 95
2021-01-09 06:00:00 -0.8 0 Calma -- -- 1.2 -- -- 94
2021-01-09 05:00:00 -0.7 0 Calma -- -- 0.8 -- -- 94
2021-01-09 04:00:00 -0.7 0 Calma -- -- 1 -- -- 94
2021-01-09 03:00:00 -0.7 0 Calma -- -- 1.8 -- -- 94
2021-01-09 02:00:00 -0.6 0 Calma -- -- 1.6 -- -- 94
2021-01-09 01:00:00 -0.5 0 Calma -- -- 1.8 -- -- 94
2021-01-09 00:00:00 -0.3 0 Calma -- -- 2.2 -- -- 93
2021-01-08 23:00:00 -0.3 0 Calma 4 Oeste 1.2 -- -- 92
2021-01-08 22:00:00 -0.1 2 Oeste 4 Oeste 1 -- -- 92
2021-01-08 21:00:00 0 0 Calma 0 Calma 0.6 -- -- 91
2021-01-08 20:00:00 0.1 0 Calma 4 Sur 0.4 -- -- 90
2021-01-08 19:00:00 0.8 2 Sur 9 Sudoeste 0 -- -- 83
2021-01-08 18:00:00 2.2 5 Sudoeste 9 Sudoeste 0 -- -- 68
2021-01-08 17:00:00 2.9 0 Calma 7 Norte 0 -- -- 61
2021-01-08 16:00:00 3.2 0 Calma 10 Noroeste 0 -- -- 61
2021-01-08 15:00:00 3.7 2 Noroeste 9 Norte 0 -- -- 61
2021-01-08 14:00:00 4 2 Noroeste 12 Noroeste 0 -- -- 59
2021-01-08 13:00:00 3.5 2 Noroeste 16 Noroeste 0 -- -- 61
2021-01-08 12:00:00 2.6 5 Noroeste 16 Oeste 0 -- -- 64
2021-01-08 11:00:00 0.9 8 Sudoeste 13 Sudoeste 0 -- -- 74
2021-01-08 10:00:00 -0.6 9 Sudoeste 13 Sudoeste 0 -- -- 79
2021-01-08 09:00:00 -1.7 10 Sudoeste 15 Sudoeste 0 -- -- 82
2021-01-08 08:00:00 -1 8 Sudoeste 10 Sudoeste 0 -- -- 77
2021-01-08 07:00:00 -0.8 5 Oeste 10 Oeste 0 -- -- 78
2021-01-08 06:00:00 -0.4 6 Sudoeste 12 Oeste 0 -- -- 77
2021-01-08 05:00:00 0.3 6 Oeste 14 Oeste 0 -- -- 75
2021-01-08 04:00:00 1.2 8 Oeste 18 Oeste 0 -- -- 73
2021-01-08 03:00:00 1.6 9 Oeste 17 Oeste 0 -- -- 74
2021-01-08 02:00:00 1.2 6 Oeste 10 Oeste 0 -- -- 79
2021-01-08 01:00:00 1.2 3 Oeste 12 Oeste 0 -- -- 83
2021-01-08 00:00:00 1.2 8 Sudoeste 17 Sudoeste 0 -- -- 84
2021-01-07 23:00:00 1.5 12 Sudoeste 19 Sudoeste 0 -- -- 84
2021-01-07 22:00:00 1.5 9 Sudoeste 16 Sudoeste -- -- -- 84
2021-01-07 21:00:00 1.2 10 Sudoeste 15 Sudoeste 0 -- -- 89
2021-01-07 20:00:00 1.1 9 Sudoeste 17 Sur 0 -- -- 91
2021-01-07 19:00:00 0.8 12 Sudoeste 17 Sudoeste 0 -- -- 91
2021-01-07 18:00:00 1.2 2 Sudoeste 3 Sudoeste 0 -- -- 82
2021-01-07 17:00:00 1.3 0 Calma 4 Oeste 0 -- -- 79
2021-01-07 16:00:00 1.1 0 Calma 4 Oeste 0 -- -- 80
2021-01-07 15:00:00 0.7 0 Calma 5 Sudeste 0 -- -- 81
2021-01-07 14:00:00 0.8 2 Noroeste 6 Noroeste 0 -- -- 81
2021-01-07 13:00:00 0.5 0 Calma 6 Noroeste 0 -- -- 83
2021-01-07 12:00:00 -0.1 0 Calma 3 Noroeste 0 -- -- 86
2021-01-07 11:00:00 -0.6 0 Calma 3 Oeste 0 -- -- 89
2021-01-07 10:00:00 -1.6 2 Oeste 6 Sudoeste 0 -- -- 92
2021-01-07 09:00:00 -2.6 3 Oeste 10 Sudoeste 0 -- -- 94
2021-01-07 08:00:00 -2.8 4 Oeste 6 Sudoeste 0 -- -- 93
2021-01-07 07:00:00 -2.7 0 Calma 4 Sudoeste 0 -- -- 92
2021-01-07 06:00:00 -2.6 0 Calma 2 Sudoeste 0 -- -- 89
2021-01-07 05:00:00 -2.1 0 Calma 3 Norte 0 -- -- 87
2021-01-07 04:00:00 -1.8 0 Calma 3 Oeste 0 -- -- 87
2021-01-07 03:00:00 -1.8 0 Calma 2 Oeste 0 -- -- 87
2021-01-07 02:00:00 -1.5 0 Calma 2 Noroeste 0 -- -- 85
2021-01-07 01:00:00 -1.2 0 Calma 5 Este 0 -- -- 83
2021-01-07 00:00:00 -1.1 2 Sudeste 12 Este 0 -- -- 83
2021-01-06 23:00:00 0.6 8 Sudoeste 15 Sudoeste 0 -- -- 75
2021-01-06 22:00:00 -0.2 9 Sudoeste 13 Sudoeste 0 -- -- 79
2021-01-06 21:00:00 -0.2 7 Sudoeste 11 Sudoeste 0 -- -- 79
2021-01-06 20:00:00 0.2 6 Sudoeste 9 Sudoeste 0 -- -- 77
2021-01-06 19:00:00 1.9 4 Sudoeste 6 Sudeste 0 -- -- 71
2021-01-06 18:00:00 3.7 5 Sudeste 10 Este 0 -- -- 64
2021-01-06 17:00:00 5.7 6 Este 15 Nordeste 0 -- -- 57
2021-01-06 16:00:00 7.8 3 Norte 13 Norte 0 -- -- 51
2021-01-06 15:00:00 8.8 4 Norte 16 Norte 0 -- -- 50
2021-01-06 14:00:00 8.4 5 Norte 14 Norte 0 -- -- 52
2021-01-06 13:00:00 7.8 3 Noroeste 15 Norte 0 -- -- 52
2021-01-06 12:00:00 7.2 5 Noroeste 16 Norte 0 -- -- 55
2021-01-06 11:00:00 4.7 9 Sudoeste 17 Sudoeste 0 -- -- 59
2021-01-06 10:00:00 1.6 14 Sudoeste 21 Sudoeste 0 -- -- 71
2021-01-06 09:00:00 -0.8 11 Sudoeste 17 Sudoeste 0 -- -- 81
2021-01-06 08:00:00 -1.3 12 Sudoeste 15 Sudoeste 0 -- -- 83
2021-01-06 07:00:00 -0.7 10 Sudoeste 15 Sudoeste 0 -- -- 84
2021-01-06 06:00:00 -1 11 Sudoeste 14 Sudoeste 0 -- -- 84
2021-01-06 05:00:00 -0.7 7 Sudoeste 12 Sudoeste 0 -- -- 84
2021-01-06 04:00:00 -0.2 6 Sudoeste 10 Sudoeste 0 -- -- 83
2021-01-06 03:00:00 1 4 Oeste 17 Oeste 0 -- -- 79
2021-01-06 02:00:00 2.5 8 Oeste 18 Oeste 0 -- -- 75
2021-01-06 01:00:00 2.8 6 Oeste 23 Oeste 0 -- -- 75
2021-01-06 00:00:00 2.5 14 Oeste 23 Oeste 0 -- -- 76
2021-01-05 23:00:00 2.5 14 Oeste 19 Noroeste 0 -- -- 75
2021-01-05 22:00:00 3 7 Oeste 18 Oeste 0 -- -- 75
2021-01-05 21:00:00 3.3 6 Oeste 14 Oeste 0 -- -- 72
2021-01-05 20:00:00 4.6 9 Oeste 17 Oeste 0 -- -- 68
2021-01-05 19:00:00 4.7 9 Oeste 13 Oeste 0 -- -- 66
2021-01-05 18:00:00 5.2 2 Noroeste 13 Norte 0 -- -- 64
2021-01-05 17:00:00 7.2 4 Noroeste 17 Noroeste 0 -- -- 54
2021-01-05 16:00:00 8.5 6 Noroeste 27 Noroeste 0 -- -- 51
2021-01-05 15:00:00 8.8 8 Noroeste 29 Oeste 0 -- -- 49
2021-01-05 14:00:00 9.6 6 Noroeste 26 Oeste 0 -- -- 49
2021-01-05 13:00:00 8.6 10 Noroeste 32 Oeste 0 -- -- 49
2021-01-05 12:00:00 7.5 11 Oeste 27 Oeste 0 -- -- 51
2021-01-05 11:00:00 6.2 18 Oeste 29 Oeste 0 -- -- 53
2021-01-05 10:00:00 3.7 13 Sudoeste 21 Oeste 0 -- -- 61
2021-01-05 09:00:00 1.3 3 Noroeste 22 Sudoeste 0 -- -- 69
2021-01-05 08:00:00 1.8 14 Sudoeste 22 Sudoeste 0 -- -- 66
2021-01-05 07:00:00 1.2 12 Sudoeste 18 Sudoeste 0 -- -- 69
2021-01-05 06:00:00 0.9 14 Sudoeste 20 Sudoeste 0 -- -- 71
2021-01-05 05:00:00 1.2 12 Sudoeste 18 Sudoeste 0 -- -- 71
2021-01-05 04:00:00 2 11 Oeste 23 Oeste 0 -- -- 69
2021-01-05 03:00:00 1.7 10 Oeste 25 Oeste 0 -- -- 70
2021-01-05 02:00:00 2 14 Oeste 23 Sudoeste 0 -- -- 72
2021-01-05 01:00:00 2.1 13 Oeste 22 Oeste 0 -- -- 71
2021-01-05 00:00:00 2.5 9 Oeste 21 Oeste 0 -- -- 73
2021-01-04 23:00:00 3 14 Oeste 23 Oeste 0 -- -- 74
2021-01-04 22:00:00 3.5 14 Oeste 25 Noroeste 0 -- -- 72
2021-01-04 21:00:00 4.5 10 Noroeste 27 Oeste 0 -- -- 64
2021-01-04 20:00:00 4.5 5 Oeste 12 Oeste 0 -- -- 58
2021-01-04 19:00:00 5.1 9 Oeste 14 Oeste 0 -- -- 54
2021-01-04 18:00:00 5.8 8 Oeste 25 Oeste 0 -- -- 52
2021-01-04 17:00:00 7.1 17 Oeste 37 Oeste 0 -- -- 47
2021-01-04 16:00:00 8.4 20 Oeste 39 Oeste 0 -- -- 44
2021-01-04 15:00:00 10 22 Oeste 54 Oeste 0 -- -- 41
2021-01-04 14:00:00 9.5 26 Oeste 49 Oeste 0 -- -- 42
2021-01-04 13:00:00 9.3 19 Oeste 43 Oeste 0 -- -- 43
2021-01-04 12:00:00 8.4 24 Oeste 48 Oeste 0 -- -- 45
2021-01-04 11:00:00 7.4 22 Oeste 39 Oeste 0 -- -- 51
2021-01-04 10:00:00 5 9 Sudoeste 19 Sudoeste 0 -- -- 58
2021-01-04 09:00:00 3.1 12 Sudoeste 23 Oeste 0 -- -- 66
2021-01-04 08:00:00 1.3 11 Sudoeste 16 Oeste 0 -- -- 73
2021-01-04 07:00:00 0.4 3 Oeste 8 Oeste 0 -- -- 81
2021-01-04 06:00:00 0.5 3 Sur 10 Sudoeste 0 -- -- 82
2021-01-04 05:00:00 3 8 Sudoeste 22 Sudoeste 0 -- -- 74
2021-01-04 04:00:00 3.3 12 Sudoeste 27 Oeste 0 -- -- 73
2021-01-04 03:00:00 2.9 14 Sudoeste 21 Sudoeste 0 -- -- 76
2021-01-04 02:00:00 3.8 8 Sudoeste 27 Oeste 0 -- -- 76
2021-01-04 01:00:00 3.3 6 Oeste 19 Oeste 0 -- -- 77
2021-01-04 00:00:00 4.1 5 Noroeste 25 Oeste 0 -- -- 69
2021-01-03 23:00:00 4.1 15 Oeste 21 Oeste 0 -- -- 63
2021-01-03 22:00:00 3 6 Oeste 12 Oeste 0 -- -- 66
2021-01-03 21:00:00 4.2 6 Oeste 24 Oeste 0 -- -- 62
2021-01-03 20:00:00 4.3 14 Oeste 24 Oeste 0 -- -- 62
2021-01-03 19:00:00 4.8 15 Oeste 35 Oeste 0 -- -- 59
2021-01-03 18:00:00 6.8 18 Oeste 39 Oeste 0 -- -- 54
2021-01-03 17:00:00 9.3 17 Oeste 33 Noroeste 0 -- -- 46
2021-01-03 16:00:00 10.5 13 Noroeste 42 Oeste 0 -- -- 45
2021-01-03 15:00:00 11.5 18 Oeste 36 Oeste 0 -- -- 44
2021-01-03 14:00:00 11.1 11 Noroeste 35 Oeste 0 -- -- 45
2021-01-03 13:00:00 10.1 15 Noroeste 38 Oeste 0 -- -- 47
2021-01-03 12:00:00 8.7 14 Noroeste 42 Oeste 0 -- -- 51
2021-01-03 11:00:00 7.4 9 Oeste 27 Oeste 0 -- -- 54
2021-01-03 10:00:00 4 12 Sudoeste 29 Oeste 0 -- -- 60
2021-01-03 09:00:00 3 16 Oeste 31 Oeste 0 -- -- 64
2021-01-03 08:00:00 2.7 19 Oeste 39 Oeste 0 -- -- 64
2021-01-03 07:00:00 2 18 Oeste 32 Oeste 0 -- -- 66
2021-01-03 06:00:00 2 19 Oeste 38 Oeste 0 -- -- 66
2021-01-03 05:00:00 2 15 Noroeste 41 Oeste 0 -- -- 66
2021-01-03 04:00:00 2 16 Noroeste 38 Oeste 0 -- -- 67
2021-01-03 03:00:00 1.9 16 Oeste 39 Oeste 0 -- -- 69
2021-01-03 02:00:00 2.2 15 Noroeste 42 Noroeste 0 -- -- 63
2021-01-03 01:00:00 2.5 12 Noroeste 40 Noroeste 0 -- -- 64
2021-01-03 00:00:00 2.5 15 Oeste 39 Oeste 0 -- -- 67
2021-01-02 23:00:00 2.8 19 Noroeste 45 Oeste 0 -- -- 64
2021-01-02 22:00:00 2.8 14 Oeste 44 Oeste 0 -- -- 66
2021-01-02 21:00:00 2.9 19 Oeste 49 Oeste 0 -- -- 67
2021-01-02 20:00:00 2.8 13 Noroeste 40 Noroeste 0 -- -- 63
2021-01-02 19:00:00 3.3 14 Noroeste 45 Noroeste 0 -- -- 51
2021-01-02 18:00:00 3.9 15 Noroeste 49 Noroeste 0 -- -- 49
2021-01-02 17:00:00 5.1 18 Noroeste 55 Noroeste 0 -- -- 47
2021-01-02 16:00:00 6.8 14 Noroeste 45 Noroeste 0 -- -- 43
2021-01-02 15:00:00 7.6 17 Noroeste 47 Noroeste 0 -- -- 44
2021-01-02 14:00:00 7.7 15 Noroeste 49 Noroeste 0 -- -- 50